Rossville, Ohio
Current Conditions -  °F | °C
As of 11:53 PM on Saturday 20 Dec 2014 (Local Time) from KHAO Reporting Station
Haze Haze  
Wind Chill: -7°   Ceiling: Unl
Heat Index: -7°   Visibility: 5mi
Dew Point: -8°   Wind: 0mph
Humidity: 92%   Direction: NA
Pressure: 30.32"   Gusts: NA
Location:  39.4158°N, 84.6488°W
Report Text: KHAO 210453Z AUTO 00000KT 5SM BR CLR M07/M08 A3032 RMK AO2 SLP275 I1000 T10671078 400061067
Loading
Personal Weather Stations






























Interactive Weather Map New forecast layout! Learn more

10-Day Weather Forecast

Advertisements
Track Severe Weather on mobile